Time;durP1;ratioP1;P1;durP2;ratioP2;P2;SDS_P1;SDS_P2;PMS_P1;PMS_P2;Temp;Humidity;BMP_temperature;BMP_pressure;BME280_temperature;BME280_humidity;BME280_pressure;Samples;Min_cycle;Max_cycle;Signal;HPM_P1;HPM_P2
2020/12/24 00:00:36;;;;;;;54.85;21.77;;;;;;;;;;4807574;29;20802;-68
2020/12/24 00:03:03;;;;;;;53.30;21.25;;;;;;;;;;4823614;29;20030;-68
2020/12/24 00:05:29;;;;;;;57.67;20.38;;;;;;;;;;4824239;29;20070;-73
2020/12/24 00:07:55;;;;;;;58.40;21.67;;;;;;;;;;4807691;29;20038;-68
2020/12/24 00:10:21;;;;;;;49.85;19.98;;;;;;;;;;4807391;29;20034;-66
2020/12/24 00:12:47;;;;;;;54.65;20.90;;;;;;;;;;4823497;29;20125;-68
2020/12/24 00:15:13;;;;;;;53.13;20.45;;;;;;;;;;4823569;29;20034;-68
2020/12/24 00:17:41;;;;;;;55.60;22.30;;;;;;;;;;4807721;29;20042;-66
2020/12/24 00:20:08;;;;;;;49.08;20.25;;;;;;;;;;4807476;29;20171;-69
2020/12/24 00:22:34;;;;;;;55.67;21.52;;;;;;;;;;4823548;29;20022;-68
2020/12/24 00:25:00;;;;;;;60.58;22.27;;;;;;;;;;4807466;29;20054;-66
2020/12/24 00:27:26;;;;;;;59.30;22.60;;;;;;;;;;4807387;29;20031;-75
2020/12/24 00:29:52;;;;;;;57.35;19.58;;;;;;;;;;4823570;29;20031;-69
2020/12/24 00:32:19;;;;;;;58.65;21.73;;;;;;;;;;4823665;29;20046;-70
2020/12/24 00:34:45;;;;;;;57.38;20.42;;;;;;;;;;4823763;29;20087;-67
2020/12/24 00:37:11;;;;;;;46.80;19.58;;;;;;;;;;4807295;29;20580;-71
2020/12/24 00:39:37;;;;;;;46.03;21.05;;;;;;;;;;4807432;29;20034;-73
2020/12/24 00:42:04;;;;;;;74.55;24.40;;;;;;;;;;4806864;29;20065;-75
2020/12/24 00:44:30;;;;;;;61.80;22.75;;;;;;;;;;4823597;29;20038;-72
2020/12/24 00:46:56;;;;;;;61.20;23.00;;;;;;;;;;4807337;29;20058;-68
2020/12/24 00:49:22;;;;;;;59.38;23.17;;;;;;;;;;4807064;29;20458;-68
2020/12/24 00:51:48;;;;;;;60.60;24.30;;;;;;;;;;4823690;29;20080;-67
2020/12/24 00:54:14;;;;;;;72.32;22.92;;;;;;;;;;4823653;29;20045;-69
2020/12/24 00:56:41;;;;;;;59.05;23.77;;;;;;;;;;4823396;29;20496;-75
2020/12/24 00:59:07;;;;;;;68.68;24.23;;;;;;;;;;4823854;29;20123;-71
2020/12/24 01:01:33;;;;;;;62.47;23.15;;;;;;;;;;4810499;29;20031;-69
2020/12/24 01:03:59;;;;;;;61.95;23.52;;;;;;;;;;4810122;29;20481;-68
2020/12/24 01:06:25;;;;;;;56.50;22.58;;;;;;;;;;4826573;29;20034;-68
2020/12/24 01:08:52;;;;;;;48.60;20.83;;;;;;;;;;4826695;29;20033;-68
2020/12/24 01:11:18;;;;;;;59.30;21.35;;;;;;;;;;4826593;29;20046;-68
2020/12/24 01:13:44;;;;;;;58.67;22.98;;;;;;;;;;4810212;29;20521;-67
2020/12/24 01:16:10;;;;;;;91.53;32.90;;;;;;;;;;4810390;29;20035;-72
2020/12/24 01:18:36;;;;;;;83.05;31.00;;;;;;;;;;4810191;29;20485;-69
2020/12/24 01:21:02;;;;;;;67.72;26.63;;;;;;;;;;4826739;29;20026;-68
2020/12/24 01:23:29;;;;;;;62.65;21.80;;;;;;;;;;4809944;29;20083;-75
2020/12/24 01:25:55;;;;;;;68.65;25.73;;;;;;;;;;4810106;29;20030;-68
2020/12/24 01:28:21;;;;;;;52.95;21.38;;;;;;;;;;4810084;29;20450;-66
2020/12/24 01:30:47;;;;;;;46.47;20.67;;;;;;;;;;4810119;29;20049;-68
2020/12/24 01:33:13;;;;;;;49.10;20.10;;;;;;;;;;4826312;29;20034;-66
2020/12/24 01:35:40;;;;;;;58.58;22.70;;;;;;;;;;4809857;29;20027;-68
2020/12/24 01:38:06;;;;;;;44.80;19.63;;;;;;;;;;4826339;29;20370;-68
2020/12/24 01:40:32;;;;;;;52.20;19.67;;;;;;;;;;4826008;29;20031;-68
2020/12/24 01:42:59;;;;;;;53.88;19.65;;;;;;;;;;4826101;29;20026;-68
2020/12/24 01:45:25;;;;;;;44.03;18.63;;;;;;;;;;4826066;29;20493;-69
2020/12/24 01:47:51;;;;;;;42.97;19.88;;;;;;;;;;4826516;29;20042;-69
2020/12/24 01:50:17;;;;;;;45.15;18.60;;;;;;;;;;4825466;29;20137;-68
2020/12/24 01:52:49;;;;;;;41.03;17.60;;;;;;;;;;4826136;29;20042;-69
2020/12/24 01:55:15;;;;;;;37.40;16.25;;;;;;;;;;4809668;29;20027;-69
2020/12/24 01:57:42;;;;;;;42.40;17.88;;;;;;;;;;4825696;29;20045;-68
2020/12/24 02:00:08;;;;;;;42.03;17.55;;;;;;;;;;4825887;29;20026;-65
2020/12/24 02:02:35;;;;;;;40.80;17.80;;;;;;;;;;4809449;29;20129;-69
2020/12/24 02:05:01;;;;;;;39.85;16.90;;;;;;;;;;4825795;29;20030;-69
2020/12/24 02:07:27;;;;;;;33.17;15.85;;;;;;;;;;4825857;29;20034;-68
2020/12/24 02:09:54;;;;;;;35.65;16.25;;;;;;;;;;4825089;29;20035;-69
2020/12/24 02:12:20;;;;;;;39.25;16.25;;;;;;;;;;4809290;29;20041;-69
2020/12/24 02:14:47;;;;;;;30.73;14.93;;;;;;;;;;4809297;29;20388;-69
2020/12/24 02:17:13;;;;;;;31.65;15.25;;;;;;;;;;4825634;29;20118;-69
2020/12/24 02:19:43;;;;;;;37.78;15.82;;;;;;;;;;4825786;29;20033;-69
2020/12/24 02:22:10;;;;;;;36.60;15.30;;;;;;;;;;4808975;29;20121;-69
2020/12/24 02:24:37;;;;;;;33.30;15.05;;;;;;;;;;4809210;29;20038;-67
2020/12/24 02:27:04;;;;;;;38.38;15.95;;;;;;;;;;4825456;29;20034;-67
2020/12/24 02:29:30;;;;;;;38.70;16.52;;;;;;;;;;4825553;29;20034;-67
2020/12/24 02:31:57;;;;;;;38.95;15.88;;;;;;;;;;4825292;29;20046;-68
2020/12/24 02:34:23;;;;;;;41.78;16.98;;;;;;;;;;4825293;29;20031;-68
2020/12/24 02:36:49;;;;;;;45.00;16.80;;;;;;;;;;4825433;29;20038;-67
2020/12/24 02:39:15;;;;;;;36.83;15.70;;;;;;;;;;4808949;29;20038;-71
2020/12/24 02:41:42;;;;;;;36.22;14.95;;;;;;;;;;4825214;29;20034;-69
2020/12/24 02:44:08;;;;;;;34.95;15.93;;;;;;;;;;4825319;29;20065;-73
2020/12/24 02:46:35;;;;;;;45.35;17.52;;;;;;;;;;4825459;29;20441;-68
2020/12/24 02:49:01;;;;;;;35.67;16.00;;;;;;;;;;4825008;29;20034;-69
2020/12/24 02:51:27;;;;;;;37.42;15.40;;;;;;;;;;4808413;29;20489;-68
2020/12/24 02:53:53;;;;;;;46.80;16.98;;;;;;;;;;4825199;29;20038;-68
2020/12/24 02:56:19;;;;;;;37.15;16.38;;;;;;;;;;4825486;29;20038;-68
2020/12/24 02:58:45;;;;;;;42.88;18.23;;;;;;;;;;4824850;29;20066;-66
2020/12/24 03:01:11;;;;;;;46.20;17.85;;;;;;;;;;4808627;29;20038;-66
2020/12/24 03:03:37;;;;;;;42.42;17.83;;;;;;;;;;4808405;29;20485;-64
2020/12/24 03:06:04;;;;;;;40.95;17.88;;;;;;;;;;4825022;29;20481;-74
2020/12/24 03:08:30;;;;;;;46.55;18.38;;;;;;;;;;4824870;29;20022;-70
2020/12/24 03:10:56;;;;;;;39.35;18.17;;;;;;;;;;4824821;29;20046;-69
2020/12/24 03:13:23;;;;;;;37.35;16.35;;;;;;;;;;4824835;29;20038;-68
2020/12/24 03:15:49;;;;;;;36.97;15.60;;;;;;;;;;4824863;29;20030;-68
2020/12/24 03:18:16;;;;;;;37.13;15.45;;;;;;;;;;4824734;29;20034;-67
2020/12/24 03:20:42;;;;;;;44.63;15.93;;;;;;;;;;4824742;29;20105;-74
2020/12/24 03:23:08;;;;;;;39.08;16.17;;;;;;;;;;4824144;29;20065;-74
2020/12/24 03:25:34;;;;;;;42.25;17.80;;;;;;;;;;4824451;29;20026;-65
2020/12/24 03:28:01;;;;;;;34.63;15.57;;;;;;;;;;4808147;29;20031;-69
2020/12/24 03:30:27;;;;;;;37.40;15.98;;;;;;;;;;4824619;29;20030;-73
2020/12/24 03:32:53;;;;;;;32.42;15.02;;;;;;;;;;4824459;29;20053;-70
2020/12/24 03:35:20;;;;;;;41.60;16.42;;;;;;;;;;4824611;29;20110;-77
2020/12/24 03:37:46;;;;;;;42.85;16.15;;;;;;;;;;4824533;29;20034;-69
2020/12/24 03:40:12;;;;;;;32.63;16.02;;;;;;;;;;4824218;29;20558;-68
2020/12/24 03:42:38;;;;;;;51.33;18.20;;;;;;;;;;4824444;29;20030;-69
2020/12/24 03:45:05;;;;;;;40.03;16.98;;;;;;;;;;4807859;29;20118;-68
2020/12/24 03:47:31;;;;;;;40.33;16.13;;;;;;;;;;4824374;29;20026;-69
2020/12/24 03:49:57;;;;;;;39.70;15.48;;;;;;;;;;4823981;29;20061;-73
2020/12/24 03:52:24;;;;;;;40.45;15.80;;;;;;;;;;4824557;29;20077;-69
2020/12/24 03:54:50;;;;;;;31.65;14.60;;;;;;;;;;4824543;29;20022;-73
2020/12/24 03:57:16;;;;;;;33.72;14.70;;;;;;;;;;4824270;29;20042;-71
2020/12/24 03:59:43;;;;;;;33.40;15.48;;;;;;;;;;4807734;29;20037;-69
2020/12/24 04:02:09;;;;;;;37.42;15.07;;;;;;;;;;4824122;29;20038;-72
2020/12/24 04:04:35;;;;;;;32.60;14.13;;;;;;;;;;4807550;29;20042;-70
2020/12/24 04:07:01;;;;;;;37.33;14.40;;;;;;;;;;4807780;29;20041;-69
2020/12/24 04:09:28;;;;;;;32.78;14.45;;;;;;;;;;4824089;29;20026;-75
2020/12/24 04:11:54;;;;;;;47.33;15.50;;;;;;;;;;4824142;29;20055;-68
2020/12/24 04:14:20;;;;;;;36.45;15.25;;;;;;;;;;4823878;29;20033;-67
2020/12/24 04:16:47;;;;;;;37.55;15.18;;;;;;;;;;4807687;29;20030;-69
2020/12/24 04:19:13;;;;;;;33.53;15.82;;;;;;;;;;4824021;29;20034;-68
2020/12/24 04:21:39;;;;;;;33.20;14.68;;;;;;;;;;4824066;29;20035;-67
2020/12/24 04:24:05;;;;;;;38.35;14.85;;;;;;;;;;4807350;29;20029;-68
2020/12/24 04:26:32;;;;;;;31.27;13.93;;;;;;;;;;4807508;29;20133;-68
2020/12/24 04:28:58;;;;;;;35.75;15.05;;;;;;;;;;4823763;29;20031;-68
2020/12/24 04:31:25;;;;;;;33.55;14.20;;;;;;;;;;4823803;29;20056;-68
2020/12/24 04:33:51;;;;;;;30.45;12.18;;;;;;;;;;4825541;29;20434;-68
2020/12/24 04:36:17;;;;;;;30.35;13.40;;;;;;;;;;4827087;29;20473;-68
2020/12/24 04:38:43;;;;;;;36.67;14.30;;;;;;;;;;4811078;29;20038;-65
2020/12/24 04:41:10;;;;;;;34.03;14.27;;;;;;;;;;4810830;29;20042;-66
2020/12/24 04:43:39;;;;;;;31.17;14.23;;;;;;;;;;4810832;29;20430;-68
2020/12/24 04:46:10;;;;;;;31.98;13.38;;;;;;;;;;4826885;29;20030;-67
2020/12/24 04:48:37;;;;;;;32.83;12.80;;;;;;;;;;4810823;29;20030;-65
2020/12/24 04:51:06;;;;;;;40.10;15.00;;;;;;;;;;4807539;29;20489;-68
2020/12/24 04:53:35;;;;;;;38.45;14.30;;;;;;;;;;4807622;29;20117;-68
2020/12/24 04:56:01;;;;;;;42.72;16.50;;;;;;;;;;4807639;29;20042;-69
2020/12/24 04:58:27;;;;;;;34.72;15.15;;;;;;;;;;4808935;29;20481;-69
2020/12/24 05:00:54;;;;;;;31.23;12.68;;;;;;;;;;4808794;29;20034;-67
2020/12/24 05:03:20;;;;;;;40.40;14.75;;;;;;;;;;4807379;29;20500;-75
2020/12/24 05:05:47;;;;;;;41.33;17.00;;;;;;;;;;4808698;29;20035;-69
2020/12/24 05:08:13;;;;;;;38.97;16.27;;;;;;;;;;4808787;29;20031;-69
2020/12/24 05:10:39;;;;;;;37.90;15.57;;;;;;;;;;4808143;29;20110;-71
2020/12/24 05:13:19;;;;;;;34.53;14.80;;;;;;;;;;4807401;29;20042;-74
2020/12/24 05:15:45;;;;;;;35.72;14.65;;;;;;;;;;4807307;29;20043;-74
2020/12/24 05:18:18;;;;;;;34.65;13.75;;;;;;;;;;4807341;29;20081;-75
2020/12/24 05:20:45;;;;;;;31.40;14.05;;;;;;;;;;4807289;29;20576;-73
2020/12/24 05:23:12;;;;;;;34.00;13.85;;;;;;;;;;4808463;29;20371;-69
2020/12/24 05:25:38;;;;;;;34.50;14.90;;;;;;;;;;4808491;29;20050;-68
2020/12/24 05:28:05;;;;;;;35.00;13.52;;;;;;;;;;4808569;29;20393;-68
2020/12/24 05:30:32;;;;;;;33.85;13.43;;;;;;;;;;4807138;29;20030;-69
2020/12/24 05:32:58;;;;;;;30.30;12.93;;;;;;;;;;4807006;29;20588;-75
2020/12/24 05:35:25;;;;;;;31.15;13.65;;;;;;;;;;4808112;29;20117;-70
2020/12/24 05:37:55;;;;;;;34.17;14.75;;;;;;;;;;4808257;29;20065;-69
2020/12/24 05:40:24;;;;;;;34.03;13.40;;;;;;;;;;4806989;29;20023;-74
2020/12/24 05:42:55;;;;;;;27.98;13.70;;;;;;;;;;4806889;29;20023;-74
2020/12/24 05:45:26;;;;;;;31.33;14.35;;;;;;;;;;4806037;29;20035;-68
2020/12/24 05:48:09;;;;;;;32.45;13.95;;;;;;;;;;4806895;29;20105;-67
2020/12/24 05:50:35;;;;;;;37.33;14.23;;;;;;;;;;4806395;29;20138;-67
2020/12/24 05:53:05;;;;;;;40.13;15.13;;;;;;;;;;4806670;29;20561;-68
2020/12/24 05:55:31;;;;;;;37.75;15.73;;;;;;;;;;4806745;29;20027;-74
2020/12/24 05:57:58;;;;;;;34.30;14.13;;;;;;;;;;4807912;29;20050;-68
2020/12/24 06:00:32;;;;;;;29.83;13.25;;;;;;;;;;4808138;29;20034;-67
2020/12/24 06:03:08;;;;;;;31.17;14.02;;;;;;;;;;4806610;29;20427;-66
2020/12/24 06:05:44;;;;;;;31.67;14.93;;;;;;;;;;4806311;29;20042;-68
2020/12/24 06:08:17;;;;;;;27.63;13.63;;;;;;;;;;4806575;29;20031;-68
2020/12/24 06:10:46;;;;;;;37.10;14.87;;;;;;;;;;4806457;29;20035;-71
2020/12/24 06:13:16;;;;;;;32.17;12.77;;;;;;;;;;4806294;29;20730;-68
2020/12/24 06:15:48;;;;;;;35.17;13.65;;;;;;;;;;4806150;29;20370;-68
2020/12/24 06:18:14;;;;;;;30.92;11.65;;;;;;;;;;4806359;29;20039;-68
2020/12/24 06:20:44;;;;;;;37.75;14.80;;;;;;;;;;4807482;29;20034;-67
2020/12/24 06:23:11;;;;;;;31.13;12.52;;;;;;;;;;4806188;29;20042;-68
2020/12/24 06:25:37;;;;;;;31.60;13.73;;;;;;;;;;4806008;29;20027;-67
2020/12/24 06:28:04;;;;;;;33.17;14.50;;;;;;;;;;4807339;29;20086;-66
2020/12/24 06:30:31;;;;;;;33.17;14.45;;;;;;;;;;4805988;29;20054;-66
2020/12/24 06:33:00;;;;;;;34.03;14.40;;;;;;;;;;4807378;29;20043;-66
2020/12/24 06:35:34;;;;;;;29.85;13.55;;;;;;;;;;4805995;29;20035;-65
2020/12/24 06:38:01;;;;;;;37.13;14.73;;;;;;;;;;4807097;29;20027;-76
2020/12/24 06:40:31;;;;;;;34.80;14.85;;;;;;;;;;4807711;29;20388;-68
2020/12/24 06:42:58;;;;;;;33.15;14.57;;;;;;;;;;4805916;29;20034;-68
2020/12/24 06:45:24;;;;;;;32.03;13.85;;;;;;;;;;4805626;29;20027;-67
2020/12/24 06:48:25;;;;;;;35.47;14.88;;;;;;;;;;4805888;29;20039;-68
2020/12/24 06:51:03;;;;;;;30.77;14.45;;;;;;;;;;4768744;30;20372;-74
2020/12/24 06:53:31;;;;;;;30.20;13.73;;;;;;;;;;4799174;29;20039;-67
2020/12/24 06:56:15;;;;;;;29.10;12.68;;;;;;;;;;4807057;29;20042;-66
2020/12/24 06:58:42;;;;;;;30.48;13.50;;;;;;;;;;4805611;29;20397;-66
2020/12/24 07:01:14;;;;;;;40.25;14.85;;;;;;;;;;4805301;29;20031;-65
2020/12/24 07:03:40;;;;;;;34.22;13.05;;;;;;;;;;4805453;29;20034;-71
2020/12/24 07:06:06;;;;;;;33.63;15.27;;;;;;;;;;4806726;29;20545;-67
2020/12/24 07:08:32;;;;;;;32.40;13.18;;;;;;;;;;4805419;29;20054;-66
2020/12/24 07:10:59;;;;;;;36.10;14.95;;;;;;;;;;4805051;29;20038;-73
2020/12/24 07:13:41;;;;;;;37.45;16.08;;;;;;;;;;4805652;29;20042;-74
2020/12/24 07:16:09;;;;;;;33.72;16.02;;;;;;;;;;4804409;29;20062;-74
2020/12/24 07:18:36;;;;;;;34.55;14.73;;;;;;;;;;4805522;29;20032;-64
2020/12/24 07:21:03;;;;;;;33.35;14.20;;;;;;;;;;4805655;29;20027;-65
2020/12/24 07:23:36;;;;;;;33.65;14.27;;;;;;;;;;4804943;29;20051;-72
2020/12/24 07:26:10;;;;;;;32.55;14.75;;;;;;;;;;4790532;29;20062;-74
2020/12/24 07:28:37;;;;;;;37.28;15.38;;;;;;;;;;4806211;29;20030;-68
2020/12/24 07:31:05;;;;;;;29.73;14.20;;;;;;;;;;4804583;29;20034;-67
2020/12/24 07:33:31;;;;;;;31.83;14.90;;;;;;;;;;4806272;29;20027;-72
2020/12/24 07:35:58;;;;;;;35.75;15.48;;;;;;;;;;4804861;29;20038;-72
2020/12/24 07:38:36;;;;;;;34.88;15.38;;;;;;;;;;4806191;29;20038;-72
2020/12/24 07:41:05;;;;;;;39.75;15.52;;;;;;;;;;4806125;29;20066;-72
2020/12/24 07:43:31;;;;;;;37.00;16.65;;;;;;;;;;4805577;29;20478;-74
2020/12/24 07:46:06;;;;;;;30.30;14.25;;;;;;;;;;4804569;29;20526;-74
2020/12/24 07:48:32;;;;;;;34.63;15.02;;;;;;;;;;4805284;29;20481;-73
2020/12/24 07:51:07;;;;;;;30.42;13.65;;;;;;;;;;4804286;29;20112;-74
2020/12/24 07:53:33;;;;;;;31.83;13.75;;;;;;;;;;4804856;29;20035;-67
2020/12/24 07:56:05;;;;;;;36.30;14.48;;;;;;;;;;4805224;29;20107;-66
2020/12/24 07:58:32;;;;;;;35.38;14.88;;;;;;;;;;4805729;29;20119;-77
2020/12/24 08:01:02;;;;;;;30.35;13.48;;;;;;;;;;4804304;29;20042;-76
2020/12/24 08:03:28;;;;;;;32.65;14.63;;;;;;;;;;4804644;29;20047;-64
2020/12/24 08:06:01;;;;;;;31.35;15.45;;;;;;;;;;4802558;29;20524;-64
2020/12/24 08:08:27;;;;;;;36.60;16.05;;;;;;;;;;4802151;29;20497;-64
2020/12/24 08:10:53;;;;;;;31.45;13.77;;;;;;;;;;4808308;29;20045;-65
2020/12/24 08:13:21;;;;;;;31.05;14.45;;;;;;;;;;4809554;29;20046;-67
2020/12/24 08:15:50;;;;;;;31.45;14.70;;;;;;;;;;4808326;29;20075;-66
2020/12/24 08:18:21;;;;;;;35.28;15.70;;;;;;;;;;4809327;29;20504;-65
2020/12/24 08:20:47;;;;;;;35.50;15.45;;;;;;;;;;4807934;29;20069;-66
2020/12/24 08:23:19;;;;;;;34.40;14.43;;;;;;;;;;4814338;29;20034;-69
2020/12/24 08:25:46;;;;;;;36.17;16.00;;;;;;;;;;4826379;29;20030;-68
2020/12/24 08:28:13;;;;;;;32.70;15.05;;;;;;;;;;4825997;29;20061;-65
2020/12/24 08:30:39;;;;;;;36.30;16.13;;;;;;;;;;4827452;29;20512;-67
2020/12/24 08:33:05;;;;;;;46.05;18.25;;;;;;;;;;4812960;29;20035;-66
2020/12/24 08:35:31;;;;;;;43.85;18.40;;;;;;;;;;4807171;29;20038;-66
2020/12/24 08:38:13;;;;;;;48.38;18.27;;;;;;;;;;4809315;29;20481;-68
2020/12/24 08:40:40;;;;;;;41.00;17.27;;;;;;;;;;4807373;29;20035;-66
2020/12/24 08:43:07;;;;;;;33.92;16.65;;;;;;;;;;4806815;29;20087;-65
2020/12/24 08:45:33;;;;;;;32.53;15.25;;;;;;;;;;4806893;29;20038;-67
2020/12/24 08:48:00;;;;;;;38.05;16.70;;;;;;;;;;4807567;29;20027;-65
2020/12/24 08:50:29;;;;;;;43.10;16.15;;;;;;;;;;4819858;29;20409;-68
2020/12/24 08:52:55;;;;;;;38.08;17.05;;;;;;;;;;4810084;29;20065;-66
2020/12/24 08:55:26;;;;;;;37.20;16.80;;;;;;;;;;4810213;29;20030;-68
2020/12/24 08:57:52;;;;;;;41.55;18.58;;;;;;;;;;4810464;29;20034;-65
2020/12/24 09:00:18;;;;;;;45.38;18.77;;;;;;;;;;4811172;29;20031;-65
2020/12/24 09:02:45;;;;;;;42.28;17.20;;;;;;;;;;4809909;29;20030;-67
2020/12/24 09:05:12;;;;;;;36.30;16.10;;;;;;;;;;4826063;29;20026;-66
2020/12/24 09:07:44;;;;;;;35.83;16.65;;;;;;;;;;4810027;29;20054;-66
2020/12/24 09:10:10;;;;;;;34.58;15.23;;;;;;;;;;4809854;29;20026;-69
2020/12/24 09:12:37;;;;;;;35.72;15.68;;;;;;;;;;4825922;29;20065;-66
2020/12/24 09:15:14;;;;;;;33.20;16.13;;;;;;;;;;4809102;29;20038;-66
2020/12/24 09:17:50;;;;;;;40.53;16.20;;;;;;;;;;4825671;29;20042;-68
2020/12/24 09:20:21;;;;;;;45.03;20.08;;;;;;;;;;4822119;29;20031;-66
2020/12/24 09:22:51;;;;;;;42.47;18.15;;;;;;;;;;4809212;29;20026;-68
2020/12/24 09:25:29;;;;;;;39.22;17.52;;;;;;;;;;4825267;29;20087;-65
2020/12/24 09:27:55;;;;;;;48.47;19.35;;;;;;;;;;4825591;29;20097;-66
2020/12/24 09:30:22;;;;;;;44.95;20.50;;;;;;;;;;4809521;29;20129;-66
2020/12/24 09:32:55;;;;;;;49.08;19.85;;;;;;;;;;4806635;29;20053;-67
2020/12/24 09:35:21;;;;;;;39.28;18.70;;;;;;;;;;4809703;29;20030;-66
2020/12/24 09:37:47;;;;;;;39.45;17.58;;;;;;;;;;4809364;29;20035;-66
2020/12/24 09:40:13;;;;;;;38.92;17.23;;;;;;;;;;4809717;29;20066;-67
2020/12/24 09:42:39;;;;;;;37.65;15.75;;;;;;;;;;4809656;29;20027;-66
2020/12/24 09:45:05;;;;;;;37.63;15.48;;;;;;;;;;4809505;29;20445;-66
2020/12/24 09:47:31;;;;;;;43.05;15.77;;;;;;;;;;4809299;29;20034;-66
2020/12/24 09:49:57;;;;;;;39.63;16.10;;;;;;;;;;4825479;29;20111;-66
2020/12/24 09:52:23;;;;;;;33.90;14.18;;;;;;;;;;4809573;29;20038;-66
2020/12/24 09:54:49;;;;;;;34.22;14.02;;;;;;;;;;4825903;29;20098;-66
2020/12/24 09:57:16;;;;;;;32.78;14.35;;;;;;;;;;4809534;29;20377;-67
2020/12/24 09:59:42;;;;;;;36.88;15.60;;;;;;;;;;4815664;29;20322;-67
2020/12/24 10:02:08;;;;;;;39.50;15.88;;;;;;;;;;4827402;29;20026;-66
2020/12/24 10:04:34;;;;;;;37.20;15.52;;;;;;;;;;4838970;29;20030;-66
2020/12/24 10:07:00;;;;;;;37.13;16.25;;;;;;;;;;4809389;29;20034;-65
2020/12/24 10:09:26;;;;;;;38.30;16.23;;;;;;;;;;4825366;29;20499;-68
2020/12/24 10:11:53;;;;;;;34.65;15.38;;;;;;;;;;4809269;29;20108;-70
2020/12/24 10:14:20;;;;;;;41.38;16.67;;;;;;;;;;4825224;29;20042;-68
2020/12/24 10:16:46;;;;;;;43.70;16.45;;;;;;;;;;4809284;29;20034;-69
2020/12/24 10:19:12;;;;;;;39.85;17.02;;;;;;;;;;4825830;29;20385;-71
2020/12/24 10:21:39;;;;;;;41.20;16.98;;;;;;;;;;4825102;29;20388;-70
2020/12/24 10:24:06;;;;;;;39.70;16.65;;;;;;;;;;4825559;29;20037;-67
2020/12/24 10:26:32;;;;;;;38.55;17.38;;;;;;;;;;4808868;29;20080;-69
2020/12/24 10:28:58;;;;;;;43.85;17.17;;;;;;;;;;4824684;29;20026;-66
2020/12/24 10:31:24;;;;;;;40.17;18.75;;;;;;;;;;4824893;29;20050;-69
2020/12/24 10:33:50;;;;;;;46.70;19.17;;;;;;;;;;4824349;29;20110;-68
2020/12/24 10:36:23;;;;;;;42.95;18.73;;;;;;;;;;4825032;29;20034;-67
2020/12/24 10:38:49;;;;;;;43.40;19.77;;;;;;;;;;4824906;29;20101;-65
2020/12/24 10:41:16;;;;;;;45.78;18.20;;;;;;;;;;4824780;29;20042;-67
2020/12/24 10:43:42;;;;;;;46.97;19.20;;;;;;;;;;4808245;29;20130;-68
2020/12/24 10:46:08;;;;;;;37.45;16.67;;;;;;;;;;4825117;29;20038;-68
2020/12/24 10:48:34;;;;;;;47.33;19.02;;;;;;;;;;4808474;29;20118;-68
2020/12/24 10:51:00;;;;;;;41.47;17.65;;;;;;;;;;4805432;29;20058;-70
2020/12/24 10:53:26;;;;;;;44.95;19.40;;;;;;;;;;4805715;29;20411;-69
2020/12/24 10:55:52;;;;;;;44.13;19.67;;;;;;;;;;4807498;29;20035;-68
2020/12/24 10:58:18;;;;;;;50.38;19.83;;;;;;;;;;4805962;29;20043;-70
2020/12/24 11:00:44;;;;;;;52.63;22.70;;;;;;;;;;4803818;29;20039;-68
2020/12/24 11:03:11;;;;;;;51.50;20.95;;;;;;;;;;4803918;29;20439;-68
2020/12/24 11:05:37;;;;;;;50.92;22.15;;;;;;;;;;4803054;29;20062;-67
2020/12/24 11:08:04;;;;;;;52.30;22.10;;;;;;;;;;4803978;29;20032;-72
2020/12/24 11:10:30;;;;;;;46.80;20.83;;;;;;;;;;4804487;29;20042;-71
2020/12/24 11:12:56;;;;;;;57.80;22.58;;;;;;;;;;4805202;29;20382;-71
2020/12/24 11:15:22;;;;;;;58.45;22.55;;;;;;;;;;4805937;29;20034;-68
2020/12/24 11:17:48;;;;;;;51.30;22.00;;;;;;;;;;4804981;29;20039;-67
2020/12/24 11:20:15;;;;;;;54.72;22.75;;;;;;;;;;4805161;29;20038;-70
2020/12/24 11:22:41;;;;;;;54.38;21.55;;;;;;;;;;4806369;29;20027;-66
2020/12/24 11:25:07;;;;;;;50.08;21.08;;;;;;;;;;4804679;29;20520;-68
2020/12/24 11:27:33;;;;;;;45.65;20.95;;;;;;;;;;4804984;29;20096;-69
2020/12/24 11:29:59;;;;;;;50.72;21.27;;;;;;;;;;4804866;29;20026;-68
2020/12/24 11:32:25;;;;;;;44.53;20.00;;;;;;;;;;4804856;29;20049;-68
2020/12/24 11:34:51;;;;;;;51.17;21.27;;;;;;;;;;4804706;29;20026;-68
2020/12/24 11:37:17;;;;;;;55.28;22.95;;;;;;;;;;4804642;29;20035;-68
2020/12/24 11:39:43;;;;;;;46.50;21.27;;;;;;;;;;4804730;29;20619;-68
2020/12/24 11:42:12;;;;;;;52.00;22.58;;;;;;;;;;4806042;29;20031;-68
2020/12/24 11:44:38;;;;;;;47.08;19.75;;;;;;;;;;4805314;29;20031;-68
2020/12/24 11:47:04;;;;;;;49.63;20.52;;;;;;;;;;4805809;29;20066;-69
2020/12/24 11:49:30;;;;;;;46.85;20.55;;;;;;;;;;4810072;29;20055;-68
2020/12/24 11:52:00;;;;;;;52.53;20.98;;;;;;;;;;4807629;29;20038;-67
2020/12/24 11:54:27;;;;;;;55.85;24.48;;;;;;;;;;4824297;29;20065;-68
2020/12/24 11:56:53;;;;;;;57.92;23.83;;;;;;;;;;4824100;29;20506;-67
2020/12/24 11:59:20;;;;;;;72.97;28.38;;;;;;;;;;4823615;29;20429;-68
2020/12/24 12:01:49;;;;;;;66.15;27.00;;;;;;;;;;4824012;29;20373;-68
2020/12/24 12:04:15;;;;;;;51.13;21.95;;;;;;;;;;4823892;29;20042;-67
2020/12/24 12:06:42;;;;;;;44.30;20.30;;;;;;;;;;4824264;29;20113;-69
2020/12/24 12:09:08;;;;;;;46.08;20.65;;;;;;;;;;4823833;29;20041;-68
2020/12/24 12:11:34;;;;;;;41.55;18.73;;;;;;;;;;4807500;29;20058;-69
2020/12/24 12:14:01;;;;;;;50.92;20.00;;;;;;;;;;4824018;29;20038;-68
2020/12/24 12:16:28;;;;;;;44.35;20.55;;;;;;;;;;4807462;29;20146;-69
2020/12/24 12:18:54;;;;;;;45.13;20.20;;;;;;;;;;4823196;29;20033;-69
2020/12/24 12:21:23;;;;;;;44.40;21.85;;;;;;;;;;4823711;29;20047;-67
2020/12/24 12:23:49;;;;;;;45.80;20.58;;;;;;;;;;4806800;29;20507;-67
2020/12/24 12:26:16;;;;;;;46.53;19.77;;;;;;;;;;4823687;29;20034;-68
2020/12/24 12:28:43;;;;;;;46.47;19.80;;;;;;;;;;4823760;29;20063;-69
2020/12/24 12:31:15;;;;;;;44.22;18.50;;;;;;;;;;4806979;29;20034;-69
2020/12/24 12:33:41;;;;;;;48.80;21.02;;;;;;;;;;4823777;29;20034;-69
2020/12/24 12:36:07;;;;;;;61.88;21.83;;;;;;;;;;4823639;29;20113;-68
2020/12/24 12:38:34;;;;;;;55.47;21.45;;;;;;;;;;4823322;29;20087;-68
2020/12/24 12:41:00;;;;;;;53.38;22.75;;;;;;;;;;4823183;29;20088;-70
2020/12/24 12:43:26;;;;;;;57.20;22.35;;;;;;;;;;4822903;29;20023;-68
2020/12/24 12:45:53;;;;;;;53.97;22.00;;;;;;;;;;4823835;29;20130;-69
2020/12/24 12:48:19;;;;;;;66.10;25.70;;;;;;;;;;4823598;29;20039;-67
2020/12/24 12:50:45;;;;;;;53.92;23.92;;;;;;;;;;4823400;29;20073;-68
2020/12/24 12:53:11;;;;;;;51.67;23.48;;;;;;;;;;4806820;29;20046;-68
2020/12/24 12:55:37;;;;;;;59.28;23.38;;;;;;;;;;4809653;29;20034;-69
2020/12/24 12:58:03;;;;;;;56.88;23.30;;;;;;;;;;4827028;29;20027;-69
2020/12/24 13:00:30;;;;;;;53.97;22.17;;;;;;;;;;4828090;29;20037;-68
2020/12/24 13:02:56;;;;;;;61.88;23.25;;;;;;;;;;4844932;29;20030;-68
2020/12/24 13:05:22;;;;;;;53.05;22.38;;;;;;;;;;4812903;29;20034;-69
2020/12/24 13:07:48;;;;;;;44.40;20.40;;;;;;;;;;4826570;29;20155;-68
2020/12/24 13:10:14;;;;;;;46.42;19.83;;;;;;;;;;4826645;29;20075;-68
2020/12/24 13:12:40;;;;;;;44.33;19.98;;;;;;;;;;4825971;29;20039;-68
2020/12/24 13:15:06;;;;;;;45.53;19.13;;;;;;;;;;4825616;29;20026;-68
2020/12/24 13:17:32;;;;;;;42.97;18.67;;;;;;;;;;4809619;29;20034;-69
2020/12/24 13:19:59;;;;;;;44.85;18.95;;;;;;;;;;4825857;29;20030;-68
2020/12/24 13:22:25;;;;;;;47.30;18.60;;;;;;;;;;4810137;29;20032;-70
2020/12/24 13:24:51;;;;;;;43.40;18.42;;;;;;;;;;4809900;29;20214;-68
2020/12/24 13:27:17;;;;;;;36.47;16.23;;;;;;;;;;4809939;29;20034;-68
2020/12/24 13:29:43;;;;;;;35.95;15.23;;;;;;;;;;4825742;29;20113;-74
2020/12/24 13:32:09;;;;;;;34.60;15.48;;;;;;;;;;4825804;29;20103;-66
2020/12/24 13:34:36;;;;;;;37.17;14.20;;;;;;;;;;4809947;29;20117;-68
2020/12/24 13:37:02;;;;;;;27.25;12.90;;;;;;;;;;4809886;29;20156;-65
2020/12/24 13:39:28;;;;;;;32.38;12.77;;;;;;;;;;4826122;29;20027;-71
2020/12/24 13:41:54;;;;;;;28.38;11.68;;;;;;;;;;4825813;29;20393;-70
2020/12/24 13:44:20;;;;;;;10.25;4.13;;;;;;;;;;4809364;29;20034;-69
2020/12/24 13:46:47;;;;;;;9.00;3.13;;;;;;;;;;4809697;29;20030;-68
2020/12/24 13:49:14;;;;;;;5.22;2.75;;;;;;;;;;4825274;29;21949;-71
2020/12/24 13:51:40;;;;;;;6.10;3.00;;;;;;;;;;4809448;29;20070;-69
2020/12/24 13:54:06;;;;;;;4.03;2.13;;;;;;;;;;4809079;29;20456;-69
2020/12/24 13:56:32;;;;;;;3.78;1.85;;;;;;;;;;4825046;29;20034;-69
2020/12/24 13:58:58;;;;;;;5.00;1.83;;;;;;;;;;4809793;29;20117;-69
2020/12/24 14:01:24;;;;;;;5.28;2.08;;;;;;;;;;4824822;29;20035;-69
2020/12/24 14:03:50;;;;;;;5.70;1.90;;;;;;;;;;4808357;29;20034;-67
2020/12/24 14:06:16;;;;;;;4.25;1.73;;;;;;;;;;4805456;29;20041;-66
2020/12/24 14:08:42;;;;;;;4.68;1.77;;;;;;;;;;4808837;29;20030;-68
2020/12/24 14:11:08;;;;;;;4.68;1.70;;;;;;;;;;4808209;29;20069;-67
2020/12/24 14:13:35;;;;;;;4.55;1.65;;;;;;;;;;4824147;29;20457;-70
2020/12/24 14:16:01;;;;;;;4.05;2.00;;;;;;;;;;4808799;29;20121;-70
2020/12/24 14:18:27;;;;;;;6.85;3.95;;;;;;;;;;4809154;29;20420;-68